Darlington, Maryland
Current Conditions -  °F | °C
As of 5:50 AM on Thursday 18 Dec 2014 (Local Time) from KAPG Reporting Station
Overcast Overcast  
Wind Chill: 30°   Ceiling: 5000
Heat Index: 37°   Visibility: 7mi
Dew Point: 23°   Wind: 12mph
Humidity: 56%   Direction: 320°NW
Pressure: 30.09"   Gusts: 23mph
Location:  39.64°N, 76.2°W
Report Text: KAPG 181050Z 32010G20KT 7SM OVC050 03/M05 A3009
Loading
Personal Weather Stations






























Interactive Weather Map New forecast layout! Learn more

10-Day Weather Forecast

Advertisements
Track Severe Weather on mobile